sensor_id;sensor_type;location;lat;lon;timestamp;P1;durP1;ratioP1;P2;durP2;ratioP2
64291;SDS011;50628;51.008;13.658;2023-06-26T00:01:45;8.45;;;5.07;;
64291;SDS011;50628;51.008;13.658;2023-06-26T00:06:49;5.53;;;5.03;;
64291;SDS011;50628;51.008;13.658;2023-06-26T00:11:50;6.03;;;5.10;;
64291;SDS011;50628;51.008;13.658;2023-06-26T00:16:52;6.65;;;5.47;;
64291;SDS011;50628;51.008;13.658;2023-06-26T00:21:55;10.13;;;5.07;;
64291;SDS011;50628;51.008;13.658;2023-06-26T00:26:57;6.35;;;5.28;;
64291;SDS011;50628;51.008;13.658;2023-06-26T00:32:00;5.25;;;4.75;;
64291;SDS011;50628;51.008;13.658;2023-06-26T00:37:03;6.55;;;4.80;;
64291;SDS011;50628;51.008;13.658;2023-06-26T00:42:05;7.03;;;4.80;;
64291;SDS011;50628;51.008;13.658;2023-06-26T00:47:08;6.75;;;4.60;;
64291;SDS011;50628;51.008;13.658;2023-06-26T00:52:14;8.75;;;5.50;;
64291;SDS011;50628;51.008;13.658;2023-06-26T00:57:17;6.38;;;4.70;;
64291;SDS011;50628;51.008;13.658;2023-06-26T01:02:19;5.03;;;4.53;;
64291;SDS011;50628;51.008;13.658;2023-06-26T01:07:22;5.00;;;4.50;;
64291;SDS011;50628;51.008;13.658;2023-06-26T01:12:24;6.47;;;4.32;;
64291;SDS011;50628;51.008;13.658;2023-06-26T01:17:27;5.18;;;4.55;;
64291;SDS011;50628;51.008;13.658;2023-06-26T01:22:36;9.20;;;5.00;;
64291;SDS011;50628;51.008;13.658;2023-06-26T01:27:46;6.65;;;4.80;;
64291;SDS011;50628;51.008;13.658;2023-06-26T01:32:51;8.90;;;5.03;;
64291;SDS011;50628;51.008;13.658;2023-06-26T01:37:53;6.78;;;4.90;;
64291;SDS011;50628;51.008;13.658;2023-06-26T01:42:56;7.22;;;4.78;;
64291;SDS011;50628;51.008;13.658;2023-06-26T01:47:59;6.63;;;4.70;;
64291;SDS011;50628;51.008;13.658;2023-06-26T01:53:07;5.97;;;4.38;;
64291;SDS011;50628;51.008;13.658;2023-06-26T01:58:14;7.65;;;5.70;;
64291;SDS011;50628;51.008;13.658;2023-06-26T02:03:17;8.95;;;4.68;;
64291;SDS011;50628;51.008;13.658;2023-06-26T02:08:20;6.80;;;4.97;;
64291;SDS011;50628;51.008;13.658;2023-06-26T02:13:24;8.93;;;4.72;;
64291;SDS011;50628;51.008;13.658;2023-06-26T02:18:26;9.93;;;4.78;;
64291;SDS011;50628;51.008;13.658;2023-06-26T02:23:28;5.32;;;4.75;;
64291;SDS011;50628;51.008;13.658;2023-06-26T02:28:32;7.55;;;5.50;;
64291;SDS011;50628;51.008;13.658;2023-06-26T02:33:35;5.20;;;4.70;;
64291;SDS011;50628;51.008;13.658;2023-06-26T02:38:37;5.25;;;4.75;;
64291;SDS011;50628;51.008;13.658;2023-06-26T02:43:40;8.10;;;4.72;;
64291;SDS011;50628;51.008;13.658;2023-06-26T02:48:42;8.35;;;5.60;;
64291;SDS011;50628;51.008;13.658;2023-06-26T02:53:45;26.70;;;7.57;;
64291;SDS011;50628;51.008;13.658;2023-06-26T02:58:48;6.00;;;4.95;;
64291;SDS011;50628;51.008;13.658;2023-06-26T03:03:50;6.40;;;5.13;;
64291;SDS011;50628;51.008;13.658;2023-06-26T03:08:53;8.10;;;4.93;;
64291;SDS011;50628;51.008;13.658;2023-06-26T03:13:56;6.35;;;4.65;;
64291;SDS011;50628;51.008;13.658;2023-06-26T03:18:59;5.85;;;4.55;;
64291;SDS011;50628;51.008;13.658;2023-06-26T03:24:02;5.47;;;4.85;;
64291;SDS011;50628;51.008;13.658;2023-06-26T03:29:05;7.20;;;4.55;;
64291;SDS011;50628;51.008;13.658;2023-06-26T03:34:08;6.65;;;5.10;;
64291;SDS011;50628;51.008;13.658;2023-06-26T03:39:11;20.08;;;6.63;;
64291;SDS011;50628;51.008;13.658;2023-06-26T03:44:14;9.30;;;6.10;;
64291;SDS011;50628;51.008;13.658;2023-06-26T03:49:21;6.55;;;5.25;;
64291;SDS011;50628;51.008;13.658;2023-06-26T03:54:22;9.00;;;5.35;;
64291;SDS011;50628;51.008;13.658;2023-06-26T03:59:26;12.63;;;5.05;;
64291;SDS011;50628;51.008;13.658;2023-06-26T04:04:27;18.20;;;6.65;;
64291;SDS011;50628;51.008;13.658;2023-06-26T04:09:30;7.95;;;5.60;;
64291;SDS011;50628;51.008;13.658;2023-06-26T04:14:33;10.07;;;5.10;;
64291;SDS011;50628;51.008;13.658;2023-06-26T04:19:35;12.38;;;6.18;;
64291;SDS011;50628;51.008;13.658;2023-06-26T04:24:37;16.67;;;6.10;;
64291;SDS011;50628;51.008;13.658;2023-06-26T04:34:48;6.63;;;4.85;;
64291;SDS011;50628;51.008;13.658;2023-06-26T04:39:50;8.25;;;5.22;;
64291;SDS011;50628;51.008;13.658;2023-06-26T04:44:52;15.07;;;5.85;;
64291;SDS011;50628;51.008;13.658;2023-06-26T04:49:55;10.57;;;5.65;;
64291;SDS011;50628;51.008;13.658;2023-06-26T04:54:57;15.60;;;5.97;;
64291;SDS011;50628;51.008;13.658;2023-06-26T04:59:59;9.25;;;6.18;;
64291;SDS011;50628;51.008;13.658;2023-06-26T05:05:02;11.25;;;5.53;;
64291;SDS011;50628;51.008;13.658;2023-06-26T05:10:05;8.73;;;5.20;;
64291;SDS011;50628;51.008;13.658;2023-06-26T05:15:07;5.70;;;5.10;;
64291;SDS011;50628;51.008;13.658;2023-06-26T05:20:12;5.22;;;4.82;;
64291;SDS011;50628;51.008;13.658;2023-06-26T05:25:14;6.35;;;4.53;;
64291;SDS011;50628;51.008;13.658;2023-06-26T05:30:17;11.07;;;6.15;;
64291;SDS011;50628;51.008;13.658;2023-06-26T05:35:21;6.28;;;5.25;;
64291;SDS011;50628;51.008;13.658;2023-06-26T05:40:24;9.98;;;4.80;;
64291;SDS011;50628;51.008;13.658;2023-06-26T05:45:27;10.15;;;4.80;;
64291;SDS011;50628;51.008;13.658;2023-06-26T05:50:30;8.27;;;5.28;;
64291;SDS011;50628;51.008;13.658;2023-06-26T05:55:33;9.57;;;5.80;;
64291;SDS011;50628;51.008;13.658;2023-06-26T06:00:35;14.55;;;6.38;;
64291;SDS011;50628;51.008;13.658;2023-06-26T06:05:40;11.50;;;5.18;;
64291;SDS011;50628;51.008;13.658;2023-06-26T06:10:42;6.88;;;5.10;;
64291;SDS011;50628;51.008;13.658;2023-06-26T06:15:44;13.43;;;6.40;;
64291;SDS011;50628;51.008;13.658;2023-06-26T06:20:47;12.57;;;5.45;;
64291;SDS011;50628;51.008;13.658;2023-06-26T06:25:49;9.05;;;5.70;;
64291;SDS011;50628;51.008;13.658;2023-06-26T06:30:51;12.68;;;6.65;;
64291;SDS011;50628;51.008;13.658;2023-06-26T06:35:54;10.25;;;6.10;;
64291;SDS011;50628;51.008;13.658;2023-06-26T06:40:56;11.93;;;6.60;;
64291;SDS011;50628;51.008;13.658;2023-06-26T06:45:58;10.55;;;5.32;;
64291;SDS011;50628;51.008;13.658;2023-06-26T06:51:01;10.85;;;6.00;;
64291;SDS011;50628;51.008;13.658;2023-06-26T06:56:03;11.43;;;5.45;;
64291;SDS011;50628;51.008;13.658;2023-06-26T07:01:05;9.27;;;5.43;;
64291;SDS011;50628;51.008;13.658;2023-06-26T07:06:08;7.20;;;5.47;;
64291;SDS011;50628;51.008;13.658;2023-06-26T07:11:10;13.90;;;5.38;;
64291;SDS011;50628;51.008;13.658;2023-06-26T07:16:12;7.22;;;5.30;;
64291;SDS011;50628;51.008;13.658;2023-06-26T07:21:16;9.50;;;4.88;;
64291;SDS011;50628;51.008;13.658;2023-06-26T07:26:18;9.82;;;5.35;;
64291;SDS011;50628;51.008;13.658;2023-06-26T07:31:22;10.20;;;5.28;;
64291;SDS011;50628;51.008;13.658;2023-06-26T07:36:25;8.45;;;4.88;;
64291;SDS011;50628;51.008;13.658;2023-06-26T07:41:27;8.20;;;5.57;;
64291;SDS011;50628;51.008;13.658;2023-06-26T07:46:30;10.23;;;5.35;;
64291;SDS011;50628;51.008;13.658;2023-06-26T07:51:33;10.88;;;4.68;;
64291;SDS011;50628;51.008;13.658;2023-06-26T07:56:51;10.23;;;5.47;;
64291;SDS011;50628;51.008;13.658;2023-06-26T08:01:55;9.73;;;4.72;;
64291;SDS011;50628;51.008;13.658;2023-06-26T08:07:00;7.18;;;4.50;;
64291;SDS011;50628;51.008;13.658;2023-06-26T08:12:04;8.13;;;4.40;;
64291;SDS011;50628;51.008;13.658;2023-06-26T08:17:06;4.85;;;3.90;;
64291;SDS011;50628;51.008;13.658;2023-06-26T08:22:09;10.07;;;4.65;;
64291;SDS011;50628;51.008;13.658;2023-06-26T08:27:11;17.10;;;6.15;;
64291;SDS011;50628;51.008;13.658;2023-06-26T08:32:13;4.75;;;3.80;;
64291;SDS011;50628;51.008;13.658;2023-06-26T08:37:16;6.32;;;4.32;;
64291;SDS011;50628;51.008;13.658;2023-06-26T08:42:18;3.88;;;3.53;;
64291;SDS011;50628;51.008;13.658;2023-06-26T08:47:20;5.55;;;4.57;;
64291;SDS011;50628;51.008;13.658;2023-06-26T08:52:25;5.45;;;4.95;;
64291;SDS011;50628;51.008;13.658;2023-06-26T08:57:31;7.82;;;4.72;;
64291;SDS011;50628;51.008;13.658;2023-06-26T09:02:33;6.25;;;3.90;;
64291;SDS011;50628;51.008;13.658;2023-06-26T09:07:38;5.32;;;3.63;;
64291;SDS011;50628;51.008;13.658;2023-06-26T09:12:40;4.72;;;4.30;;
64291;SDS011;50628;51.008;13.658;2023-06-26T09:17:42;9.82;;;4.90;;
64291;SDS011;50628;51.008;13.658;2023-06-26T09:22:47;6.13;;;3.85;;
64291;SDS011;50628;51.008;13.658;2023-06-26T09:27:49;4.40;;;4.00;;
64291;SDS011;50628;51.008;13.658;2023-06-26T09:32:51;4.55;;;4.13;;
64291;SDS011;50628;51.008;13.658;2023-06-26T09:37:55;6.75;;;4.65;;
64291;SDS011;50628;51.008;13.658;2023-06-26T09:43:02;5.68;;;3.80;;
64291;SDS011;50628;51.008;13.658;2023-06-26T09:48:04;6.07;;;4.45;;
64291;SDS011;50628;51.008;13.658;2023-06-26T09:53:10;15.75;;;4.28;;
64291;SDS011;50628;51.008;13.658;2023-06-26T09:58:13;4.18;;;3.78;;
64291;SDS011;50628;51.008;13.658;2023-06-26T10:03:17;4.15;;;3.70;;
64291;SDS011;50628;51.008;13.658;2023-06-26T10:08:20;5.63;;;3.97;;
64291;SDS011;50628;51.008;13.658;2023-06-26T10:13:25;4.00;;;3.60;;
64291;SDS011;50628;51.008;13.658;2023-06-26T10:18:32;7.40;;;4.18;;
64291;SDS011;50628;51.008;13.658;2023-06-26T10:23:37;6.82;;;4.00;;
64291;SDS011;50628;51.008;13.658;2023-06-26T10:28:42;3.83;;;3.40;;
64291;SDS011;50628;51.008;13.658;2023-06-26T10:33:48;4.95;;;2.92;;
64291;SDS011;50628;51.008;13.658;2023-06-26T10:38:54;6.35;;;4.05;;
64291;SDS011;50628;51.008;13.658;2023-06-26T10:44:08;5.53;;;4.15;;
64291;SDS011;50628;51.008;13.658;2023-06-26T10:49:11;5.35;;;3.85;;
64291;SDS011;50628;51.008;13.658;2023-06-26T10:54:16;5.70;;;4.10;;
64291;SDS011;50628;51.008;13.658;2023-06-26T10:59:19;7.50;;;4.10;;
64291;SDS011;50628;51.008;13.658;2023-06-26T11:04:35;7.85;;;4.07;;
64291;SDS011;50628;51.008;13.658;2023-06-26T11:09:42;4.38;;;3.35;;
64291;SDS011;50628;51.008;13.658;2023-06-26T11:14:56;4.20;;;3.78;;
64291;SDS011;50628;51.008;13.658;2023-06-26T11:19:58;3.22;;;2.92;;
64291;SDS011;50628;51.008;13.658;2023-06-26T11:25:01;6.25;;;3.78;;
64291;SDS011;50628;51.008;13.658;2023-06-26T11:30:04;4.43;;;2.92;;
64291;SDS011;50628;51.008;13.658;2023-06-26T11:35:07;5.55;;;3.35;;
64291;SDS011;50628;51.008;13.658;2023-06-26T11:40:19;3.42;;;3.20;;
64291;SDS011;50628;51.008;13.658;2023-06-26T11:45:22;5.72;;;3.33;;
64291;SDS011;50628;51.008;13.658;2023-06-26T11:50:25;8.48;;;4.10;;
64291;SDS011;50628;51.008;13.658;2023-06-26T11:55:39;5.20;;;3.20;;
64291;SDS011;50628;51.008;13.658;2023-06-26T12:00:43;3.65;;;3.35;;
64291;SDS011;50628;51.008;13.658;2023-06-26T12:05:45;5.60;;;3.60;;
64291;SDS011;50628;51.008;13.658;2023-06-26T12:10:49;3.65;;;3.35;;
64291;SDS011;50628;51.008;13.658;2023-06-26T12:15:51;4.70;;;3.38;;
64291;SDS011;50628;51.008;13.658;2023-06-26T12:20:54;3.80;;;3.40;;
64291;SDS011;50628;51.008;13.658;2023-06-26T12:25:57;6.78;;;4.72;;
64291;SDS011;50628;51.008;13.658;2023-06-26T12:31:13;9.20;;;4.75;;
64291;SDS011;50628;51.008;13.658;2023-06-26T12:36:15;4.32;;;3.88;;
64291;SDS011;50628;51.008;13.658;2023-06-26T12:41:19;4.30;;;3.60;;
64291;SDS011;50628;51.008;13.658;2023-06-26T12:46:32;3.63;;;3.35;;
64291;SDS011;50628;51.008;13.658;2023-06-26T12:51:35;5.60;;;3.63;;
64291;SDS011;50628;51.008;13.658;2023-06-26T12:56:38;6.70;;;3.70;;
64291;SDS011;50628;51.008;13.658;2023-06-26T13:01:40;5.07;;;3.70;;
64291;SDS011;50628;51.008;13.658;2023-06-26T13:06:42;4.25;;;3.55;;
64291;SDS011;50628;51.008;13.658;2023-06-26T13:11:46;7.68;;;3.80;;
64291;SDS011;50628;51.008;13.658;2023-06-26T13:16:48;4.55;;;3.92;;
64291;SDS011;50628;51.008;13.658;2023-06-26T13:21:49;5.53;;;3.47;;
64291;SDS011;50628;51.008;13.658;2023-06-26T13:26:53;5.65;;;3.35;;
64291;SDS011;50628;51.008;13.658;2023-06-26T13:31:55;4.18;;;3.50;;
64291;SDS011;50628;51.008;13.658;2023-06-26T13:36:56;4.80;;;3.83;;
64291;SDS011;50628;51.008;13.658;2023-06-26T13:42:01;3.65;;;3.25;;
64291;SDS011;50628;51.008;13.658;2023-06-26T13:47:03;4.20;;;3.65;;
64291;SDS011;50628;51.008;13.658;2023-06-26T13:52:05;4.47;;;3.92;;
64291;SDS011;50628;51.008;13.658;2023-06-26T13:57:10;6.03;;;3.20;;
64291;SDS011;50628;51.008;13.658;2023-06-26T14:02:12;5.50;;;3.80;;
64291;SDS011;50628;51.008;13.658;2023-06-26T14:07:14;12.95;;;4.40;;
64291;SDS011;50628;51.008;13.658;2023-06-26T14:12:17;5.13;;;3.90;;
64291;SDS011;50628;51.008;13.658;2023-06-26T14:17:19;3.80;;;3.47;;
64291;SDS011;50628;51.008;13.658;2023-06-26T14:22:21;8.88;;;4.47;;
64291;SDS011;50628;51.008;13.658;2023-06-26T14:27:24;9.00;;;4.40;;
64291;SDS011;50628;51.008;13.658;2023-06-26T14:32:26;7.72;;;4.78;;
64291;SDS011;50628;51.008;13.658;2023-06-26T14:37:29;7.90;;;3.55;;
64291;SDS011;50628;51.008;13.658;2023-06-26T14:42:33;11.95;;;3.92;;
64291;SDS011;50628;51.008;13.658;2023-06-26T14:47:35;5.07;;;4.68;;
64291;SDS011;50628;51.008;13.658;2023-06-26T14:52:38;6.32;;;4.22;;
64291;SDS011;50628;51.008;13.658;2023-06-26T14:57:42;4.50;;;4.10;;
64291;SDS011;50628;51.008;13.658;2023-06-26T15:02:47;4.93;;;3.90;;
64291;SDS011;50628;51.008;13.658;2023-06-26T15:07:54;4.35;;;3.95;;
64291;SDS011;50628;51.008;13.658;2023-06-26T15:12:57;4.78;;;4.20;;
64291;SDS011;50628;51.008;13.658;2023-06-26T15:17:59;5.80;;;4.13;;
64291;SDS011;50628;51.008;13.658;2023-06-26T15:23:01;7.78;;;4.15;;
64291;SDS011;50628;51.008;13.658;2023-06-26T15:28:07;8.27;;;4.45;;
64291;SDS011;50628;51.008;13.658;2023-06-26T15:33:10;6.82;;;4.13;;
64291;SDS011;50628;51.008;13.658;2023-06-26T15:38:12;5.85;;;4.07;;
64291;SDS011;50628;51.008;13.658;2023-06-26T15:43:15;6.38;;;4.10;;
64291;SDS011;50628;51.008;13.658;2023-06-26T15:48:17;7.60;;;4.63;;
64291;SDS011;50628;51.008;13.658;2023-06-26T15:53:19;7.70;;;3.83;;
64291;SDS011;50628;51.008;13.658;2023-06-26T15:58:22;5.43;;;4.85;;
64291;SDS011;50628;51.008;13.658;2023-06-26T16:03:24;6.97;;;4.78;;
64291;SDS011;50628;51.008;13.658;2023-06-26T16:08:26;5.00;;;4.35;;
64291;SDS011;50628;51.008;13.658;2023-06-26T16:13:29;200.07;;;21.67;;
64291;SDS011;50628;51.008;13.658;2023-06-26T16:18:31;43.28;;;7.15;;
64291;SDS011;50628;51.008;13.658;2023-06-26T16:23:33;24.15;;;8.63;;
64291;SDS011;50628;51.008;13.658;2023-06-26T16:28:36;20.42;;;9.68;;
64291;SDS011;50628;51.008;13.658;2023-06-26T16:33:38;25.80;;;13.88;;
64291;SDS011;50628;51.008;13.658;2023-06-26T16:38:40;11.93;;;6.95;;
64291;SDS011;50628;51.008;13.658;2023-06-26T16:43:44;7.80;;;6.45;;
64291;SDS011;50628;51.008;13.658;2023-06-26T16:48:46;8.63;;;5.97;;
64291;SDS011;50628;51.008;13.658;2023-06-26T16:53:48;6.35;;;5.75;;
64291;SDS011;50628;51.008;13.658;2023-06-26T16:58:51;16.98;;;14.48;;
64291;SDS011;50628;51.008;13.658;2023-06-26T17:03:53;10.90;;;5.68;;
64291;SDS011;50628;51.008;13.658;2023-06-26T17:08:55;8.32;;;5.55;;
64291;SDS011;50628;51.008;13.658;2023-06-26T17:13:58;10.05;;;5.53;;
64291;SDS011;50628;51.008;13.658;2023-06-26T17:19:00;7.97;;;5.53;;
64291;SDS011;50628;51.008;13.658;2023-06-26T17:24:03;9.77;;;6.93;;
64291;SDS011;50628;51.008;13.658;2023-06-26T17:29:07;9.80;;;6.93;;
64291;SDS011;50628;51.008;13.658;2023-06-26T17:34:09;9.70;;;7.55;;
64291;SDS011;50628;51.008;13.658;2023-06-26T17:39:11;8.63;;;6.78;;
64291;SDS011;50628;51.008;13.658;2023-06-26T17:44:14;12.48;;;7.57;;
64291;SDS011;50628;51.008;13.658;2023-06-26T17:49:16;14.85;;;7.35;;
64291;SDS011;50628;51.008;13.658;2023-06-26T17:54:18;9.05;;;8.15;;
64291;SDS011;50628;51.008;13.658;2023-06-26T17:59:21;12.70;;;8.85;;
64291;SDS011;50628;51.008;13.658;2023-06-26T18:04:23;15.30;;;9.07;;
64291;SDS011;50628;51.008;13.658;2023-06-26T18:09:25;14.68;;;9.90;;
64291;SDS011;50628;51.008;13.658;2023-06-26T18:14:28;11.82;;;8.68;;
64291;SDS011;50628;51.008;13.658;2023-06-26T18:19:30;8.73;;;7.32;;
64291;SDS011;50628;51.008;13.658;2023-06-26T18:24:32;12.00;;;8.75;;
64291;SDS011;50628;51.008;13.658;2023-06-26T18:29:35;13.15;;;10.57;;
64291;SDS011;50628;51.008;13.658;2023-06-26T18:34:38;27.83;;;24.58;;
64291;SDS011;50628;51.008;13.658;2023-06-26T18:39:40;22.38;;;18.58;;
64291;SDS011;50628;51.008;13.658;2023-06-26T18:44:43;17.17;;;12.32;;
64291;SDS011;50628;51.008;13.658;2023-06-26T18:49:46;10.68;;;9.02;;
64291;SDS011;50628;51.008;13.658;2023-06-26T18:54:48;10.73;;;8.13;;
64291;SDS011;50628;51.008;13.658;2023-06-26T18:59:51;8.68;;;7.70;;
64291;SDS011;50628;51.008;13.658;2023-06-26T19:04:53;14.45;;;12.27;;
64291;SDS011;50628;51.008;13.658;2023-06-26T19:09:56;19.48;;;15.23;;
64291;SDS011;50628;51.008;13.658;2023-06-26T19:14:59;15.63;;;10.55;;
64291;SDS011;50628;51.008;13.658;2023-06-26T19:20:01;18.77;;;16.83;;
64291;SDS011;50628;51.008;13.658;2023-06-26T19:25:05;12.13;;;7.93;;
64291;SDS011;50628;51.008;13.658;2023-06-26T19:30:10;9.60;;;8.65;;
64291;SDS011;50628;51.008;13.658;2023-06-26T19:35:12;11.45;;;8.98;;
64291;SDS011;50628;51.008;13.658;2023-06-26T19:40:14;9.73;;;8.73;;
64291;SDS011;50628;51.008;13.658;2023-06-26T19:45:18;13.70;;;9.52;;
64291;SDS011;50628;51.008;13.658;2023-06-26T19:50:20;10.93;;;9.85;;
64291;SDS011;50628;51.008;13.658;2023-06-26T19:55:22;9.45;;;8.55;;
64291;SDS011;50628;51.008;13.658;2023-06-26T20:00:25;17.65;;;9.90;;
64291;SDS011;50628;51.008;13.658;2023-06-26T20:05:28;15.07;;;10.15;;
64291;SDS011;50628;51.008;13.658;2023-06-26T20:10:30;10.85;;;9.75;;
64291;SDS011;50628;51.008;13.658;2023-06-26T20:15:34;11.45;;;9.13;;
64291;SDS011;50628;51.008;13.658;2023-06-26T20:20:37;10.10;;;9.07;;
64291;SDS011;50628;51.008;13.658;2023-06-26T20:25:40;15.45;;;10.48;;
64291;SDS011;50628;51.008;13.658;2023-06-26T20:30:43;12.50;;;9.63;;
64291;SDS011;50628;51.008;13.658;2023-06-26T20:35:45;10.73;;;9.73;;
64291;SDS011;50628;51.008;13.658;2023-06-26T20:40:47;11.95;;;9.82;;
64291;SDS011;50628;51.008;13.658;2023-06-26T20:45:51;10.82;;;9.68;;
64291;SDS011;50628;51.008;13.658;2023-06-26T20:50:53;14.93;;;9.75;;
64291;SDS011;50628;51.008;13.658;2023-06-26T20:55:56;10.65;;;9.52;;
64291;SDS011;50628;51.008;13.658;2023-06-26T21:00:59;10.88;;;9.52;;
64291;SDS011;50628;51.008;13.658;2023-06-26T21:06:01;13.85;;;9.90;;
64291;SDS011;50628;51.008;13.658;2023-06-26T21:11:03;10.70;;;9.70;;
64291;SDS011;50628;51.008;13.658;2023-06-26T21:16:06;10.70;;;9.75;;
64291;SDS011;50628;51.008;13.658;2023-06-26T21:21:08;18.67;;;11.25;;
64291;SDS011;50628;51.008;13.658;2023-06-26T21:26:10;11.68;;;10.48;;
64291;SDS011;50628;51.008;13.658;2023-06-26T21:31:13;13.25;;;11.68;;
64291;SDS011;50628;51.008;13.658;2023-06-26T21:36:15;13.07;;;10.90;;
64291;SDS011;50628;51.008;13.658;2023-06-26T21:41:17;15.02;;;11.77;;
64291;SDS011;50628;51.008;13.658;2023-06-26T21:46:20;15.88;;;10.77;;
64291;SDS011;50628;51.008;13.658;2023-06-26T21:51:22;16.05;;;11.93;;
64291;SDS011;50628;51.008;13.658;2023-06-26T21:56:24;12.20;;;10.82;;
64291;SDS011;50628;51.008;13.658;2023-06-26T22:01:27;15.73;;;11.70;;
64291;SDS011;50628;51.008;13.658;2023-06-26T22:06:29;13.73;;;12.32;;
64291;SDS011;50628;51.008;13.658;2023-06-26T22:11:31;14.20;;;11.07;;
64291;SDS011;50628;51.008;13.658;2023-06-26T22:16:34;13.65;;;12.25;;
64291;SDS011;50628;51.008;13.658;2023-06-26T22:21:36;20.88;;;14.25;;
64291;SDS011;50628;51.008;13.658;2023-06-26T22:26:38;14.55;;;13.15;;
64291;SDS011;50628;51.008;13.658;2023-06-26T22:31:41;14.98;;;13.55;;
64291;SDS011;50628;51.008;13.658;2023-06-26T22:36:43;18.38;;;13.40;;
64291;SDS011;50628;51.008;13.658;2023-06-26T22:41:45;14.55;;;12.43;;
64291;SDS011;50628;51.008;13.658;2023-06-26T22:46:48;11.45;;;9.23;;
64291;SDS011;50628;51.008;13.658;2023-06-26T22:51:50;12.52;;;8.27;;
64291;SDS011;50628;51.008;13.658;2023-06-26T22:56:52;16.25;;;12.70;;
64291;SDS011;50628;51.008;13.658;2023-06-26T23:01:55;17.42;;;12.00;;
64291;SDS011;50628;51.008;13.658;2023-06-26T23:06:57;13.25;;;8.95;;
64291;SDS011;50628;51.008;13.658;2023-06-26T23:11:59;18.55;;;11.88;;
64291;SDS011;50628;51.008;13.658;2023-06-26T23:17:03;17.80;;;13.38;;
64291;SDS011;50628;51.008;13.658;2023-06-26T23:22:05;11.43;;;9.63;;
64291;SDS011;50628;51.008;13.658;2023-06-26T23:27:09;16.35;;;7.53;;
64291;SDS011;50628;51.008;13.658;2023-06-26T23:32:12;14.40;;;6.18;;
64291;SDS011;50628;51.008;13.658;2023-06-26T23:37:14;4.05;;;2.83;;
64291;SDS011;50628;51.008;13.658;2023-06-26T23:42:25;6.05;;;3.15;;
64291;SDS011;50628;51.008;13.658;2023-06-26T23:47:29;10.38;;;3.58;;
64291;SDS011;50628;51.008;13.658;2023-06-26T23:52:32;6.15;;;3.05;;
64291;SDS011;50628;51.008;13.658;2023-06-26T23:57:35;8.20;;;3.17;;
